createdAt,value
2018-06-22T00:01:38.470Z,1.80
2018-06-22T00:04:07.542Z,1.60
2018-06-22T00:06:35.836Z,1.70
2018-06-22T00:09:06.149Z,1.50
2018-06-22T00:11:34.233Z,1.50
2018-06-22T00:14:02.626Z,1.55
2018-06-22T00:16:30.713Z,1.80
2018-06-22T00:18:59.706Z,2.30
2018-06-22T00:21:28.003Z,1.77
2018-06-22T00:23:56.534Z,1.90
2018-06-22T00:26:24.709Z,1.82
2018-06-22T00:28:53.021Z,2.20
2018-06-22T00:31:21.058Z,1.90
2018-06-22T00:33:50.069Z,1.92
2018-06-22T00:36:18.233Z,1.40
2018-06-22T00:38:46.816Z,1.82
2018-06-22T00:41:15.023Z,1.70
2018-06-22T00:43:43.300Z,1.60
2018-06-22T00:46:11.511Z,1.30
2018-06-22T00:48:39.848Z,1.50
2018-06-22T00:51:08.098Z,1.60
2018-06-22T00:53:43.945Z,1.47
2018-06-22T00:56:12.530Z,1.45
2018-06-22T00:58:40.794Z,2.00
2018-06-22T01:01:09.505Z,2.00
2018-06-22T01:03:37.751Z,2.35
2018-06-22T01:06:06.636Z,2.20
2018-06-22T01:08:35.757Z,2.25
2018-06-22T01:11:04.017Z,2.37
2018-06-22T01:13:32.514Z,2.73
2018-06-22T01:16:00.898Z,2.92
2018-06-22T01:18:29.067Z,2.80
2018-06-22T01:20:57.667Z,2.67
2018-06-22T01:23:25.802Z,3.05
2018-06-22T01:25:54.219Z,3.20
2018-06-22T01:28:22.699Z,3.40
2018-06-22T01:30:50.985Z,2.90
2018-06-22T01:33:19.114Z,3.22
2018-06-22T01:35:47.517Z,3.50
2018-06-22T01:38:15.798Z,3.60
2018-06-22T01:40:44.741Z,4.00
2018-06-22T01:43:12.861Z,3.60
2018-06-22T01:45:41.167Z,3.67
2018-06-22T01:48:09.186Z,3.10
2018-06-22T01:50:37.533Z,3.60
2018-06-22T01:53:05.715Z,3.00
2018-06-22T01:55:33.817Z,3.00
2018-06-22T01:58:02.594Z,3.27
2018-06-22T02:00:30.840Z,2.90
2018-06-22T02:02:59.392Z,3.10
2018-06-22T02:05:27.486Z,2.83
2018-06-22T02:07:56.159Z,3.00
2018-06-22T02:10:24.301Z,3.00
2018-06-22T02:12:52.736Z,3.10
2018-06-22T02:15:21.577Z,3.70
2018-06-22T02:17:49.737Z,3.40
2018-06-22T02:20:17.966Z,3.10
2018-06-22T02:22:46.321Z,3.00
2018-06-22T02:25:14.407Z,2.95
2018-06-22T02:27:42.693Z,3.10
2018-06-22T02:30:10.854Z,3.12
2018-06-22T02:32:38.898Z,3.80
2018-06-22T02:35:07.271Z,3.40
2018-06-22T02:37:36.341Z,3.55
2018-06-22T02:40:04.867Z,3.30
2018-06-22T02:42:33.099Z,3.10
2018-06-22T02:45:01.483Z,2.90
2018-06-22T02:47:29.593Z,2.80
2018-06-22T02:49:57.509Z,3.00
2018-06-22T02:52:25.544Z,2.50
2018-06-22T02:54:54.629Z,3.20
2018-06-22T02:57:23.221Z,2.85
2018-06-22T02:59:51.666Z,2.52
2018-06-22T03:02:22.248Z,2.07
2018-06-22T03:04:51.766Z,3.10
2018-06-22T03:07:20.037Z,2.10
2018-06-22T03:09:52.477Z,2.17
2018-06-22T03:12:21.290Z,2.47
2018-06-22T03:14:51.305Z,2.30
2018-06-22T03:17:19.983Z,2.70
2018-06-22T03:19:48.689Z,2.20
2018-06-22T03:22:17.878Z,2.33
2018-06-22T03:24:47.977Z,2.05
2018-06-22T03:27:16.470Z,2.50
2018-06-22T03:29:46.984Z,2.33
2018-06-22T03:32:14.921Z,2.70
2018-06-22T03:34:43.244Z,2.45
2018-06-22T03:37:11.752Z,2.37
2018-06-22T03:39:40.410Z,2.40
2018-06-22T03:42:08.368Z,2.00
2018-06-22T03:44:36.738Z,2.00
2018-06-22T03:47:04.811Z,2.08
2018-06-22T03:49:33.283Z,2.10
2018-06-22T03:52:01.445Z,1.80
2018-06-22T03:54:29.556Z,1.90
2018-06-22T03:56:57.810Z,1.80
2018-06-22T03:59:26.201Z,1.85
2018-06-22T04:01:54.210Z,1.70
2018-06-22T04:04:22.446Z,2.62
2018-06-22T04:06:50.706Z,2.45
2018-06-22T04:09:18.801Z,1.65
2018-06-22T04:11:46.883Z,1.37
2018-06-22T04:14:14.914Z,1.50
2018-06-22T04:16:43.514Z,1.62
2018-06-22T04:19:11.797Z,1.50
2018-06-22T04:21:40.261Z,2.20
2018-06-22T04:24:08.336Z,2.43
2018-06-22T04:26:36.526Z,1.27
2018-06-22T04:29:05.134Z,1.10
2018-06-22T04:31:33.515Z,1.20
2018-06-22T04:34:01.736Z,0.90
2018-06-22T04:36:30.376Z,0.90
2018-06-22T04:38:58.657Z,1.00
2018-06-22T04:41:27.030Z,0.90
2018-06-22T04:43:55.300Z,0.90
2018-06-22T04:46:23.858Z,0.95
2018-06-22T04:48:52.479Z,0.88
2018-06-22T04:51:20.949Z,0.93
2018-06-22T04:53:49.210Z,1.00
2018-06-22T04:56:17.225Z,0.80
2018-06-22T04:58:45.669Z,1.00
2018-06-22T05:01:14.161Z,1.47
2018-06-22T05:03:42.724Z,1.00
2018-06-22T05:06:11.021Z,0.80
2018-06-22T05:08:39.645Z,1.00
2018-06-22T05:11:07.732Z,0.85
2018-06-22T05:13:35.981Z,0.80
2018-06-22T05:16:04.522Z,0.70
2018-06-22T05:18:33.026Z,0.90
2018-06-22T05:21:01.120Z,0.90
2018-06-22T05:23:29.602Z,0.70
2018-06-22T05:25:58.150Z,0.70
2018-06-22T05:31:17.158Z,0.93
2018-06-22T05:33:45.403Z,0.85
2018-06-22T05:36:13.343Z,1.10
2018-06-22T05:38:41.234Z,0.80
2018-06-22T05:41:09.460Z,0.97
2018-06-22T05:43:37.691Z,0.80
2018-06-22T05:46:05.656Z,0.80
2018-06-22T05:48:33.801Z,0.90
2018-06-22T05:51:01.980Z,1.00
2018-06-22T05:53:30.387Z,1.00
2018-06-22T05:55:58.570Z,1.20
2018-06-22T05:58:26.515Z,0.80
2018-06-22T06:00:54.490Z,0.80
2018-06-22T06:03:23.302Z,0.80
2018-06-22T06:05:51.588Z,1.65
2018-06-22T06:08:19.559Z,1.20
2018-06-22T06:10:47.764Z,1.00
2018-06-22T06:13:16.102Z,1.02
2018-06-22T06:15:44.061Z,1.40
2018-06-22T06:18:12.069Z,1.00
2018-06-22T06:20:40.597Z,1.10
2018-06-22T06:23:08.797Z,0.80
2018-06-22T06:25:36.830Z,0.70
2018-06-22T06:28:05.002Z,1.00
2018-06-22T06:30:32.985Z,1.32
2018-06-22T06:33:00.937Z,1.50
2018-06-22T06:35:29.205Z,0.93
2018-06-22T06:37:57.432Z,1.00
2018-06-22T06:40:25.672Z,1.00
2018-06-22T06:42:53.588Z,1.20
2018-06-22T06:45:21.957Z,1.60
2018-06-22T06:47:50.233Z,1.00
2018-06-22T06:50:18.505Z,1.40
2018-06-22T06:52:46.491Z,1.10
2018-06-22T06:55:14.513Z,0.90
2018-06-22T06:57:42.436Z,1.00
2018-06-22T07:00:10.635Z,1.20
2018-06-22T07:02:38.978Z,1.20
2018-06-22T07:05:06.978Z,1.20
2018-06-22T07:07:34.968Z,1.10
2018-06-22T07:10:02.941Z,1.10
2018-06-22T07:12:30.912Z,1.10
2018-06-22T07:14:58.889Z,1.00
2018-06-22T07:17:27.308Z,1.05
2018-06-22T07:19:55.223Z,0.90
2018-06-22T07:22:23.191Z,1.27
2018-06-22T07:24:51.518Z,1.30
2018-06-22T07:27:19.792Z,1.30
2018-06-22T07:29:47.754Z,1.10
2018-06-22T07:32:15.900Z,1.40
2018-06-22T07:34:43.826Z,1.92
2018-06-22T07:37:12.186Z,1.10
2018-06-22T07:39:40.076Z,0.80
2018-06-22T07:42:08.326Z,0.80
2018-06-22T07:44:36.907Z,1.00
2018-06-22T07:47:04.906Z,1.50
2018-06-22T07:49:32.897Z,2.37
2018-06-22T07:52:00.918Z,1.80
2018-06-22T07:54:28.866Z,1.35
2018-06-22T07:56:57.089Z,0.90
2018-06-22T07:59:25.081Z,1.27
2018-06-22T08:01:53.076Z,1.20
2018-06-22T08:04:21.000Z,1.40
2018-06-22T08:06:49.268Z,1.40
2018-06-22T08:09:17.232Z,1.33
2018-06-22T08:11:45.290Z,0.80
2018-06-22T08:14:13.208Z,1.35
2018-06-22T08:16:42.064Z,1.40
2018-06-22T08:19:12.259Z,1.30
2018-06-22T08:21:40.309Z,1.45
2018-06-22T08:24:08.706Z,1.70
2018-06-22T08:26:36.906Z,1.10
2018-06-22T08:29:05.204Z,1.37
2018-06-22T08:31:33.301Z,1.72
2018-06-22T08:34:01.527Z,1.15
2018-06-22T08:36:29.523Z,1.30
2018-06-22T08:38:58.017Z,1.00
2018-06-22T08:41:26.336Z,1.30
2018-06-22T08:43:54.841Z,1.57
2018-06-22T08:46:23.322Z,1.10
2018-06-22T08:48:51.262Z,1.20
2018-06-22T08:51:20.388Z,1.80
2018-06-22T08:53:48.721Z,1.50
2018-06-22T08:56:16.944Z,1.60
2018-06-22T08:58:45.834Z,1.50
2018-06-22T09:01:15.048Z,1.57
2018-06-22T09:03:41.850Z,2.10
2018-06-22T09:06:10.458Z,1.30
2018-06-22T09:08:38.483Z,1.00
2018-06-22T09:11:06.469Z,1.37
2018-06-22T09:13:34.734Z,1.17
2018-06-22T09:16:02.729Z,1.40
2018-06-22T09:18:30.701Z,1.27
2018-06-22T09:20:58.683Z,1.17
2018-06-22T09:23:26.969Z,1.30
2018-06-22T09:25:54.892Z,1.00
2018-06-22T09:28:23.081Z,1.40
2018-06-22T09:30:51.040Z,1.20
2018-06-22T09:33:19.044Z,1.50
2018-06-22T09:35:47.281Z,1.40
2018-06-22T09:38:16.144Z,1.40
2018-06-22T09:40:44.384Z,1.20
2018-06-22T09:43:13.283Z,1.30
2018-06-22T09:45:41.452Z,1.00
2018-06-22T09:48:09.680Z,1.00
2018-06-22T09:50:37.936Z,1.10
2018-06-22T09:53:06.293Z,1.10
2018-06-22T09:55:34.233Z,1.50
2018-06-22T09:58:02.220Z,1.10
2018-06-22T10:00:30.432Z,1.60
2018-06-22T10:02:58.489Z,1.10
2018-06-22T10:05:26.433Z,1.70
2018-06-22T10:07:54.717Z,1.10
2018-06-22T10:10:23.460Z,1.15
2018-06-22T10:12:52.111Z,1.65
2018-06-22T10:15:20.404Z,1.12
2018-06-22T10:17:49.098Z,1.30
2018-06-22T10:20:17.247Z,1.52
2018-06-22T10:22:45.812Z,1.30
2018-06-22T10:25:14.077Z,1.20
2018-06-22T10:27:42.338Z,1.30
2018-06-22T10:30:10.268Z,1.30
2018-06-22T10:32:38.705Z,2.45
2018-06-22T10:35:06.843Z,2.47
2018-06-22T10:37:35.162Z,1.40
2018-06-22T10:40:03.189Z,1.15
2018-06-22T10:42:31.510Z,1.27
2018-06-22T10:44:59.461Z,1.50
2018-06-22T10:47:27.581Z,5.37
2018-06-22T10:49:55.654Z,3.72
2018-06-22T10:52:23.587Z,0.93
2018-06-22T10:54:51.549Z,1.20
2018-06-22T10:57:20.053Z,1.60
2018-06-22T10:59:48.214Z,1.00
2018-06-22T11:02:16.028Z,0.95
2018-06-22T11:04:44.244Z,1.20
2018-06-22T11:07:12.168Z,1.50
2018-06-22T11:09:40.412Z,1.20
2018-06-22T11:12:08.426Z,1.30
2018-06-22T11:14:36.506Z,1.15
2018-06-22T11:17:04.778Z,0.90
2018-06-22T11:19:32.748Z,1.02
2018-06-22T11:22:00.688Z,1.00
2018-06-22T11:24:28.642Z,1.60
2018-06-22T11:26:56.519Z,1.10
2018-06-22T11:29:24.780Z,1.15
2018-06-22T11:31:53.038Z,1.02
2018-06-22T11:34:21.286Z,0.95
2018-06-22T11:36:49.916Z,1.00
2018-06-22T11:39:17.893Z,1.00
2018-06-22T11:41:46.049Z,1.30
2018-06-22T11:44:14.555Z,1.20
2018-06-22T11:46:42.539Z,1.30
2018-06-22T11:49:11.429Z,1.55
2018-06-22T11:51:39.454Z,1.20
2018-06-22T11:54:07.472Z,1.50
2018-06-22T11:56:36.221Z,1.20
2018-06-22T11:59:04.281Z,1.10
2018-06-22T12:01:32.481Z,1.10
2018-06-22T12:04:00.846Z,1.17
2018-06-22T12:06:29.040Z,1.20
2018-06-22T12:08:57.002Z,1.40
2018-06-22T12:11:24.991Z,0.90
2018-06-22T12:13:53.567Z,1.30
2018-06-22T12:16:21.842Z,1.00
2018-06-22T12:18:49.852Z,0.80
2018-06-22T12:21:17.823Z,1.02
2018-06-22T12:23:46.112Z,1.47
2018-06-22T12:26:14.522Z,1.17
2018-06-22T12:28:42.806Z,1.45
2018-06-22T12:31:10.995Z,1.00
2018-06-22T12:33:39.485Z,1.07
2018-06-22T12:36:08.458Z,1.32
2018-06-22T12:38:36.503Z,1.60
2018-06-22T12:41:04.682Z,1.20
2018-06-22T12:43:32.990Z,1.10
2018-06-22T12:46:01.064Z,1.20
2018-06-22T12:48:29.515Z,1.10
2018-06-22T12:50:58.018Z,0.95
2018-06-22T12:53:26.852Z,1.30
2018-06-22T12:55:55.170Z,1.50
2018-06-22T12:58:23.360Z,1.10
2018-06-22T13:00:51.617Z,1.40
2018-06-22T13:03:19.540Z,1.27
2018-06-22T13:05:47.674Z,1.20
2018-06-22T13:08:15.956Z,1.30
2018-06-22T13:10:44.206Z,1.50
2018-06-22T13:13:12.515Z,1.47
2018-06-22T13:15:40.625Z,1.60
2018-06-22T13:18:09.255Z,1.30
2018-06-22T13:20:37.370Z,1.80
2018-06-22T13:23:05.997Z,1.53
2018-06-22T13:25:34.061Z,2.00
2018-06-22T13:28:02.402Z,1.45
2018-06-22T13:30:30.739Z,1.60
2018-06-22T13:32:59.346Z,1.90
2018-06-22T13:35:27.584Z,1.55
2018-06-22T13:37:55.671Z,1.77
2018-06-22T13:40:24.202Z,2.30
2018-06-22T13:42:52.770Z,1.97
2018-06-22T13:45:21.159Z,1.80
2018-06-22T13:47:49.649Z,1.60
2018-06-22T13:50:18.135Z,1.67
2018-06-22T13:52:47.419Z,1.60
2018-06-22T13:55:15.900Z,1.60
2018-06-22T13:57:44.078Z,1.65
2018-06-22T14:00:12.483Z,1.40
2018-06-22T14:02:40.901Z,1.42
2018-06-22T14:05:14.451Z,1.30
2018-06-22T14:07:42.739Z,1.30
2018-06-22T14:10:12.246Z,1.10
2018-06-22T14:12:40.893Z,1.20
2018-06-22T14:15:09.275Z,1.32
2018-06-22T14:17:37.391Z,1.57
2018-06-22T14:20:05.694Z,1.50
2018-06-22T14:22:33.995Z,1.20
2018-06-22T14:25:02.109Z,1.20
2018-06-22T14:27:30.217Z,1.55
2018-06-22T14:29:58.217Z,1.20
2018-06-22T14:32:26.475Z,1.40
2018-06-22T14:34:54.873Z,1.35
2018-06-22T14:37:23.372Z,1.20
2018-06-22T14:39:51.677Z,1.32
2018-06-22T14:42:19.837Z,1.90
2018-06-22T14:44:47.985Z,1.12
2018-06-22T14:47:16.025Z,1.22
2018-06-22T14:49:44.051Z,1.98
2018-06-22T14:52:12.678Z,1.60
2018-06-22T14:55:49.337Z,1.40
2018-06-22T14:58:22.886Z,1.30
2018-06-22T15:00:56.353Z,1.30
2018-06-22T15:03:30.018Z,1.40
2018-06-22T15:06:03.833Z,1.30
2018-06-22T15:08:32.069Z,1.80
2018-06-22T15:11:00.422Z,1.70
2018-06-22T15:13:28.529Z,1.60
2018-06-22T15:15:58.513Z,1.50
2018-06-22T15:18:26.571Z,1.30
2018-06-22T15:20:54.959Z,1.30
2018-06-22T15:23:23.474Z,1.32
2018-06-22T15:25:51.703Z,1.10
2018-06-22T15:28:20.431Z,1.30
2018-06-22T15:30:49.142Z,1.62
2018-06-22T15:33:22.666Z,1.92
2018-06-22T15:35:56.329Z,1.90
2018-06-22T15:38:30.049Z,1.70
2018-06-22T15:41:04.269Z,1.60
2018-06-22T15:43:37.741Z,2.30
2018-06-22T15:46:11.155Z,1.77
2018-06-22T15:48:46.665Z,1.10
2018-06-22T15:51:20.614Z,1.60
2018-06-22T15:53:54.246Z,1.77
2018-06-22T15:56:23.665Z,1.40
2018-06-22T15:58:52.190Z,1.40
2018-06-22T16:01:20.570Z,1.90
2018-06-22T16:03:54.170Z,1.60
2018-06-22T16:06:22.245Z,1.70
2018-06-22T16:08:50.442Z,1.55
2018-06-22T16:11:19.216Z,1.62
2018-06-22T16:13:52.909Z,1.70
2018-06-22T16:16:26.680Z,1.50
2018-06-22T16:19:00.115Z,1.20
2018-06-22T16:21:33.942Z,1.92
2018-06-22T16:24:08.039Z,1.87
2018-06-22T16:26:41.749Z,1.20
2018-06-22T16:29:10.114Z,1.30
2018-06-22T16:31:38.399Z,1.30
2018-06-22T16:34:07.287Z,1.35
2018-06-22T16:36:35.937Z,1.47
2018-06-22T16:39:06.705Z,1.50
2018-06-22T16:41:34.945Z,1.40
2018-06-22T16:44:03.468Z,1.92
2018-06-22T16:46:32.072Z,1.70
2018-06-22T16:49:00.225Z,2.05
2018-06-22T16:51:28.260Z,1.65
2018-06-22T16:53:56.417Z,2.20
2018-06-22T16:56:24.985Z,1.53
2018-06-22T16:58:53.641Z,1.52
2018-06-22T17:01:23.306Z,1.60
2018-06-22T17:03:51.731Z,1.30
2018-06-22T17:06:19.787Z,1.60
2018-06-22T17:08:53.408Z,1.62
2018-06-22T17:11:27.105Z,1.50
2018-06-22T17:14:00.854Z,1.60
2018-06-22T17:16:34.203Z,1.70
2018-06-22T17:19:03.105Z,1.80
2018-06-22T17:21:31.786Z,1.50
2018-06-22T17:24:05.969Z,1.77
2018-06-22T17:26:38.250Z,2.02
2018-06-22T17:29:10.312Z,1.70
2018-06-22T17:31:50.177Z,1.70
2018-06-22T17:34:24.862Z,2.37
2018-06-22T17:37:01.879Z,1.65
2018-06-22T17:39:39.613Z,3.08
2018-06-22T17:42:15.904Z,1.90
2018-06-22T17:44:50.409Z,3.87
2018-06-22T17:47:25.984Z,2.20
2018-06-22T17:50:30.938Z,1.80
2018-06-22T17:53:08.921Z,2.00
2018-06-22T17:55:47.414Z,2.15
2018-06-22T17:58:24.064Z,3.30
2018-06-22T18:01:02.209Z,4.30
2018-06-22T18:03:44.660Z,1.67
2018-06-22T18:06:24.027Z,1.62
2018-06-22T18:09:01.937Z,1.45
2018-06-22T18:11:45.859Z,1.75
2018-06-22T18:14:24.187Z,1.90
2018-06-22T18:16:52.546Z,1.77
2018-06-22T18:19:20.735Z,1.90
2018-06-22T18:21:48.795Z,1.70
2018-06-22T18:24:16.915Z,1.50
2018-06-22T18:26:45.251Z,2.40
2018-06-22T18:29:13.357Z,1.90
2018-06-22T18:31:42.024Z,1.55
2018-06-22T18:34:10.030Z,1.50
2018-06-22T18:36:39.513Z,1.55
2018-06-22T18:39:09.050Z,1.50
2018-06-22T18:41:37.146Z,1.80
2018-06-22T18:44:05.229Z,1.80
2018-06-22T18:46:34.029Z,2.08
2018-06-22T18:49:02.597Z,2.20
2018-06-22T18:51:30.762Z,1.70
2018-06-22T18:54:04.098Z,1.70
2018-06-22T18:56:37.548Z,2.50
2018-06-22T18:59:10.873Z,3.05
2018-06-22T19:01:44.267Z,2.10
2018-06-22T19:04:12.580Z,3.65
2018-06-22T19:06:40.617Z,2.60
2018-06-22T19:09:09.922Z,2.80
2018-06-22T19:11:38.076Z,2.65
2018-06-22T19:14:06.782Z,1.80
2018-06-22T19:16:35.265Z,1.80
2018-06-22T19:19:03.470Z,1.92
2018-06-22T19:21:32.123Z,2.00
2018-06-22T19:24:00.811Z,1.50
2018-06-22T19:26:28.885Z,1.90
2018-06-22T19:28:57.361Z,2.40
2018-06-22T19:31:26.119Z,2.10
2018-06-22T19:33:54.498Z,2.20
2018-06-22T19:36:22.747Z,2.00
2018-06-22T19:38:50.945Z,2.50
2018-06-22T19:41:19.040Z,2.20
2018-06-22T19:44:53.582Z,2.05
2018-06-22T19:47:27.285Z,1.67
2018-06-22T19:50:00.729Z,2.30
2018-06-22T19:52:34.270Z,2.10
2018-06-22T19:55:02.431Z,2.90
2018-06-22T19:57:30.706Z,2.50
2018-06-22T19:59:58.705Z,2.10
2018-06-22T20:02:27.322Z,2.00
2018-06-22T20:04:55.449Z,2.15
2018-06-22T20:07:24.358Z,2.00
2018-06-22T20:09:52.555Z,1.72
2018-06-22T20:12:20.858Z,1.60
2018-06-22T20:14:48.897Z,1.98
2018-06-22T20:17:17.688Z,1.92
2018-06-22T20:19:46.379Z,1.95
2018-06-22T20:22:14.570Z,1.70
2018-06-22T20:24:48.162Z,2.50
2018-06-22T20:27:16.294Z,2.02
2018-06-22T20:29:45.066Z,1.62
2018-06-22T20:32:15.417Z,1.70
2018-06-22T20:34:49.368Z,2.00
2018-06-22T20:37:22.919Z,1.30
2018-06-22T20:39:56.791Z,1.52
2018-06-22T20:42:30.462Z,1.95
2018-06-22T20:45:04.142Z,1.70
2018-06-22T20:47:37.494Z,1.80
2018-06-22T20:50:11.157Z,1.50
2018-06-22T20:52:39.306Z,1.30
2018-06-22T20:55:07.578Z,1.50
2018-06-22T20:57:35.988Z,3.40
2018-06-22T21:00:04.098Z,2.52
2018-06-22T21:02:32.478Z,1.70
2018-06-22T21:05:00.777Z,1.50
2018-06-22T21:07:29.339Z,1.77
2018-06-22T21:09:58.384Z,1.50
2018-06-22T21:12:40.414Z,1.72
2018-06-22T21:14:56.161Z,1.90
2018-06-22T21:17:24.235Z,1.77
2018-06-22T21:19:52.722Z,1.55
2018-06-22T21:22:21.193Z,2.00
2018-06-22T21:24:49.578Z,1.92
2018-06-22T21:27:23.187Z,3.30
2018-06-22T21:29:56.697Z,1.60
2018-06-22T21:32:30.234Z,2.20
2018-06-22T21:36:05.731Z,2.20
2018-06-22T21:38:39.545Z,2.80
2018-06-22T21:41:08.798Z,1.93
2018-06-22T21:43:37.601Z,1.95
2018-06-22T21:46:06.633Z,1.87
2018-06-22T21:48:35.219Z,1.72
2018-06-22T21:51:03.589Z,1.90
2018-06-22T21:53:31.953Z,1.95
2018-06-22T21:56:00.515Z,2.50
2018-06-22T21:58:28.742Z,2.45
2018-06-22T22:00:56.947Z,3.45
2018-06-22T22:03:25.493Z,4.03
2018-06-22T22:05:53.867Z,4.85
2018-06-22T22:08:22.549Z,2.30
2018-06-22T22:10:56.359Z,2.50
2018-06-22T22:13:25.117Z,2.70
2018-06-22T22:15:53.731Z,2.60
2018-06-22T22:18:22.515Z,2.37
2018-06-22T22:20:50.709Z,1.90
2018-06-22T22:23:19.378Z,2.30
2018-06-22T22:25:47.622Z,2.90
2018-06-22T22:28:16.066Z,2.50
2018-06-22T22:30:44.722Z,2.37
2018-06-22T22:33:13.174Z,2.90
2018-06-22T22:35:41.587Z,2.77
2018-06-22T22:38:09.865Z,2.80
2018-06-22T22:40:38.233Z,2.80
2018-06-22T22:43:06.310Z,2.87
2018-06-22T22:45:34.390Z,2.60
2018-06-22T22:48:02.514Z,3.20
2018-06-22T22:50:31.177Z,2.60
2018-06-22T22:52:59.241Z,3.15
2018-06-22T22:55:27.595Z,2.83
2018-06-22T22:57:55.960Z,3.00
2018-06-22T23:00:24.174Z,5.83
2018-06-22T23:02:52.374Z,2.93
2018-06-22T23:05:20.723Z,2.95
2018-06-22T23:07:48.849Z,3.30
2018-06-22T23:10:17.066Z,3.02
2018-06-22T23:12:45.818Z,3.52
2018-06-22T23:15:14.136Z,2.90
2018-06-22T23:17:43.360Z,3.30
2018-06-22T23:20:12.302Z,2.80
2018-06-22T23:22:46.391Z,2.70
2018-06-22T23:25:14.636Z,3.17
2018-06-22T23:27:42.834Z,3.02
2018-06-22T23:30:11.618Z,2.80
2018-06-22T23:32:40.663Z,2.70
2018-06-22T23:35:09.058Z,2.72
2018-06-22T23:37:37.341Z,2.90
2018-06-22T23:40:06.328Z,3.77
2018-06-22T23:42:34.658Z,3.53
2018-06-22T23:45:03.241Z,3.80
2018-06-22T23:47:31.309Z,3.33
2018-06-22T23:50:00.458Z,2.60
2018-06-22T23:52:28.723Z,5.30
2018-06-22T23:54:57.014Z,4.35
2018-06-22T23:57:25.546Z,5.60
2018-06-22T23:59:53.611Z,2.58
